createdAt,value
2022-09-24T00:02:22.209Z,9.30
2022-09-24T00:04:50.645Z,9.20
2022-09-24T00:07:19.052Z,9.00
2022-09-24T00:09:48.324Z,8.90
2022-09-24T00:12:17.202Z,8.90
2022-09-24T00:14:46.970Z,8.90
2022-09-24T00:17:15.515Z,9.00
2022-09-24T00:19:44.442Z,9.10
2022-09-24T00:22:12.968Z,9.10
2022-09-24T00:25:04.263Z,9.10
2022-09-24T00:27:32.807Z,9.00
2022-09-24T00:30:02.597Z,8.90
2022-09-24T00:32:31.071Z,9.00
2022-09-24T00:34:59.799Z,9.20
2022-09-24T00:37:29.078Z,9.40
2022-09-24T00:39:58.000Z,9.50
2022-09-24T00:42:26.402Z,9.50
2022-09-24T00:44:56.439Z,9.60
2022-09-24T00:47:36.250Z,9.60
2022-09-24T00:50:09.788Z,9.60
2022-09-24T00:52:40.900Z,9.60
2022-09-24T00:55:10.442Z,9.60
2022-09-24T00:57:40.359Z,9.60
2022-09-24T01:00:10.458Z,9.60
2022-09-24T01:02:41.000Z,9.60
2022-09-24T01:05:10.344Z,9.60
2022-09-24T01:07:38.851Z,9.60
2022-09-24T01:10:07.835Z,9.60
2022-09-24T01:12:43.839Z,9.70
2022-09-24T01:15:19.658Z,9.60
2022-09-24T01:17:54.167Z,9.60
2022-09-24T01:20:47.398Z,9.60
2022-09-24T01:23:33.144Z,9.60
2022-09-24T01:26:19.066Z,9.50
2022-09-24T01:28:57.546Z,9.50
2022-09-24T01:31:30.773Z,9.50
2022-09-24T01:34:01.230Z,9.40
2022-09-24T01:36:29.808Z,9.40
2022-09-24T01:38:59.989Z,9.40
2022-09-24T01:41:28.656Z,9.40
2022-09-24T01:43:57.136Z,9.40
2022-09-24T01:46:27.255Z,9.40
2022-09-24T01:48:55.772Z,9.50
2022-09-24T01:51:27.344Z,9.40
2022-09-24T01:54:01.562Z,9.40
2022-09-24T01:56:34.107Z,9.40
2022-09-24T01:59:04.337Z,9.40
2022-09-24T02:01:37.543Z,9.40
2022-09-24T02:04:11.228Z,9.40
2022-09-24T02:06:43.191Z,9.50
2022-09-24T02:09:33.270Z,9.50
2022-09-24T02:12:07.018Z,9.50
2022-09-24T02:14:39.203Z,9.60
2022-09-24T02:17:09.191Z,9.60
2022-09-24T02:19:39.219Z,9.60
2022-09-24T02:22:09.473Z,9.60
2022-09-24T02:24:42.059Z,9.50
2022-09-24T02:27:10.544Z,9.50
2022-09-24T02:29:38.962Z,9.50
2022-09-24T02:32:10.614Z,9.40
2022-09-24T02:34:40.325Z,9.40
2022-09-24T02:37:10.936Z,9.40
2022-09-24T02:39:39.515Z,9.30
2022-09-24T02:42:09.567Z,9.30
2022-09-24T02:44:38.547Z,9.30
2022-09-24T02:47:08.390Z,9.30
2022-09-24T02:49:37.016Z,9.30
2022-09-24T02:52:05.704Z,9.30
2022-09-24T02:54:34.353Z,9.30
2022-09-24T02:57:02.804Z,9.30
2022-09-24T02:59:31.250Z,9.30
2022-09-24T03:01:59.704Z,9.30
2022-09-24T03:04:30.806Z,9.30
2022-09-24T03:06:59.324Z,9.30
2022-09-24T03:09:27.895Z,9.30
2022-09-24T03:11:56.830Z,9.30
2022-09-24T03:14:26.107Z,9.40
2022-09-24T03:16:54.578Z,9.50
2022-09-24T03:19:23.003Z,9.50
2022-09-24T03:21:52.780Z,9.40
2022-09-24T03:24:22.199Z,9.40
2022-09-24T03:26:50.863Z,9.30
2022-09-24T03:29:40.178Z,9.30
2022-09-24T03:32:07.613Z,9.20
2022-09-24T03:34:36.061Z,9.40
2022-09-24T03:37:05.921Z,9.60
2022-09-24T03:39:34.341Z,9.80
2022-09-24T03:42:02.712Z,10.10
2022-09-24T03:44:31.146Z,10.20
2022-09-24T03:46:59.597Z,10.20
2022-09-24T03:49:28.145Z,10.30
2022-09-24T03:51:56.563Z,10.40
2022-09-24T03:54:26.376Z,10.40
2022-09-24T03:56:54.827Z,10.50
2022-09-24T03:59:23.385Z,10.50
2022-09-24T04:01:51.846Z,10.60
2022-09-24T04:04:20.404Z,10.60
2022-09-24T04:06:49.027Z,10.60
2022-09-24T04:09:17.510Z,10.60
2022-09-24T04:11:47.347Z,10.60
2022-09-24T04:14:15.738Z,10.60
2022-09-24T04:16:44.243Z,10.60
2022-09-24T04:19:12.945Z,10.50
2022-09-24T04:21:41.360Z,10.50
2022-09-24T04:24:10.915Z,10.50
2022-09-24T04:26:39.374Z,10.50
2022-09-24T04:29:09.607Z,10.50
2022-09-24T04:31:39.630Z,10.50
2022-09-24T04:34:08.229Z,10.50
2022-09-24T04:36:36.720Z,10.40
2022-09-24T04:39:05.810Z,10.40
2022-09-24T04:41:35.123Z,10.50
2022-09-24T04:44:05.284Z,10.50
2022-09-24T04:46:35.229Z,10.60
2022-09-24T04:49:03.665Z,10.70
2022-09-24T04:51:33.909Z,10.70
2022-09-24T04:54:03.404Z,10.70
2022-09-24T04:56:32.087Z,10.80
2022-09-24T04:59:00.505Z,10.90
2022-09-24T05:01:29.199Z,10.90
2022-09-24T05:03:58.997Z,10.90
2022-09-24T05:06:27.460Z,10.90
2022-09-24T05:08:55.881Z,10.80
2022-09-24T05:11:24.432Z,10.80
2022-09-24T05:13:52.872Z,10.80
2022-09-24T05:16:21.407Z,10.40
2022-09-24T05:18:49.942Z,10.10
2022-09-24T05:21:19.876Z,9.70
2022-09-24T05:23:48.324Z,9.50
2022-09-24T05:26:34.030Z,9.40
2022-09-24T05:29:02.577Z,9.20
2022-09-24T05:31:31.094Z,9.10
2022-09-24T05:33:59.570Z,9.10
2022-09-24T05:36:29.353Z,9.10
2022-09-24T05:38:57.796Z,9.00
2022-09-24T05:41:26.365Z,9.00
2022-09-24T05:43:58.300Z,9.00
2022-09-24T05:46:26.991Z,8.90
2022-09-24T05:48:55.876Z,8.80
2022-09-24T05:51:24.333Z,8.80
2022-09-24T05:53:54.186Z,8.80
2022-09-24T05:56:22.708Z,8.80
2022-09-24T05:58:51.349Z,8.90
2022-09-24T06:01:20.143Z,8.90
2022-09-24T06:03:48.795Z,8.80
2022-09-24T06:06:17.288Z,8.80
2022-09-24T06:08:45.817Z,8.80
2022-09-24T06:11:15.622Z,8.80
2022-09-24T06:13:44.208Z,8.90
2022-09-24T06:16:13.577Z,8.90
2022-09-24T06:18:44.238Z,9.00
2022-09-24T06:21:14.229Z,9.20
2022-09-24T06:23:45.304Z,9.40
2022-09-24T06:26:15.887Z,9.50
2022-09-24T06:28:44.358Z,9.60
2022-09-24T06:31:12.834Z,9.70
2022-09-24T06:33:42.486Z,9.80
2022-09-24T06:36:10.962Z,10.10
2022-09-24T06:38:41.200Z,10.40
2022-09-24T06:41:10.174Z,10.70
2022-09-24T06:43:40.000Z,10.90
2022-09-24T06:46:08.452Z,11.00
2022-09-24T06:48:38.175Z,11.10
2022-09-24T06:51:07.703Z,11.10
2022-09-24T06:53:36.187Z,11.20
2022-09-24T06:56:04.687Z,11.30
2022-09-24T06:58:33.988Z,11.30
2022-09-24T07:01:04.218Z,11.70
2022-09-24T07:03:34.260Z,11.70
2022-09-24T07:06:03.817Z,11.80
2022-09-24T07:08:32.620Z,12.10
2022-09-24T07:11:02.224Z,12.30
2022-09-24T07:13:30.836Z,12.50
2022-09-24T07:16:01.466Z,12.60
2022-09-24T07:18:31.499Z,12.70
2022-09-24T07:20:59.983Z,13.00
2022-09-24T07:23:31.518Z,13.20
2022-09-24T07:26:00.153Z,13.40
2022-09-24T07:28:28.700Z,13.40
2022-09-24T07:31:00.758Z,13.60
2022-09-24T07:33:29.305Z,13.80
2022-09-24T07:36:02.130Z,13.90
2022-09-24T07:38:30.604Z,14.00
2022-09-24T07:40:59.992Z,13.90
2022-09-24T07:43:28.631Z,14.00
2022-09-24T07:45:58.266Z,14.00
2022-09-24T07:48:26.959Z,14.10
2022-09-24T07:50:55.949Z,14.30
2022-09-24T07:53:25.747Z,14.50
2022-09-24T07:55:56.355Z,14.60
2022-09-24T07:58:24.789Z,14.60
2022-09-24T08:00:53.208Z,14.70
2022-09-24T08:03:21.731Z,14.80
2022-09-24T08:05:50.275Z,14.90
2022-09-24T08:08:20.611Z,15.00
2022-09-24T08:10:50.527Z,15.10
2022-09-24T08:13:21.617Z,15.20
2022-09-24T08:15:59.228Z,15.30
2022-09-24T08:18:31.790Z,15.40
2022-09-24T08:21:01.038Z,15.50
2022-09-24T08:23:29.447Z,15.60
2022-09-24T08:26:01.061Z,15.70
2022-09-24T08:28:29.955Z,15.70
2022-09-24T08:31:00.581Z,15.80
2022-09-24T08:33:31.339Z,15.70
2022-09-24T08:36:00.769Z,15.70
2022-09-24T08:38:29.226Z,15.80
2022-09-24T08:41:07.387Z,15.80
2022-09-24T08:43:48.173Z,15.90
2022-09-24T08:46:35.966Z,16.00
2022-09-24T08:49:06.971Z,16.00
2022-09-24T08:51:47.224Z,16.10
2022-09-24T08:54:16.358Z,16.20
2022-09-24T08:56:47.673Z,16.00
2022-09-24T08:59:26.284Z,16.00
2022-09-24T09:02:01.318Z,16.10
2022-09-24T09:04:34.738Z,16.10
2022-09-24T09:07:11.831Z,16.10
2022-09-24T09:09:49.844Z,16.20
2022-09-24T09:12:27.013Z,16.30
2022-09-24T09:15:01.540Z,16.30
2022-09-24T09:17:37.831Z,16.30
2022-09-24T09:20:11.518Z,16.30
2022-09-24T09:22:44.040Z,16.30
2022-09-24T09:25:19.928Z,16.30
2022-09-24T09:27:51.939Z,16.30
2022-09-24T09:30:21.994Z,16.30
2022-09-24T09:33:15.738Z,16.30
2022-09-24T09:35:50.801Z,16.40
2022-09-24T09:38:23.983Z,16.40
2022-09-24T09:40:58.947Z,16.50
2022-09-24T09:43:29.397Z,16.70
2022-09-24T09:46:10.619Z,16.80
2022-09-24T09:48:45.584Z,17.00
2022-09-24T09:51:22.797Z,17.10
2022-09-24T09:53:59.052Z,17.10
2022-09-24T09:56:29.673Z,17.20
2022-09-24T09:59:08.197Z,17.10
2022-09-24T10:01:38.305Z,17.20
2022-09-24T10:04:06.840Z,17.30
2022-09-24T10:06:37.086Z,17.20
2022-09-24T10:09:12.779Z,17.30
2022-09-24T10:11:42.179Z,17.30
2022-09-24T10:14:14.001Z,17.40
2022-09-24T10:16:44.150Z,17.60
2022-09-24T10:19:17.755Z,17.70
2022-09-24T10:21:46.342Z,17.80
2022-09-24T10:24:17.669Z,17.90
2022-09-24T10:26:47.091Z,17.90
2022-09-24T10:29:36.422Z,18.10
2022-09-24T10:32:05.676Z,18.20
2022-09-24T10:34:34.592Z,18.40
2022-09-24T10:37:10.194Z,18.50
2022-09-24T10:39:39.582Z,18.50
2022-09-24T10:42:22.849Z,18.70
2022-09-24T10:44:53.830Z,18.70
2022-09-24T10:47:28.222Z,18.70
2022-09-24T10:50:24.419Z,18.60
2022-09-24T10:52:55.440Z,18.60
2022-09-24T10:55:43.399Z,18.60
2022-09-24T10:58:23.159Z,18.80
2022-09-24T11:00:59.215Z,19.00
2022-09-24T11:03:42.821Z,19.00
2022-09-24T11:06:18.232Z,19.00
2022-09-24T11:09:02.620Z,19.00
2022-09-24T11:11:40.064Z,19.00
2022-09-24T11:14:21.300Z,19.00
2022-09-24T11:17:20.122Z,18.90
2022-09-24T11:20:00.243Z,18.90
2022-09-24T11:22:35.082Z,19.00
2022-09-24T11:25:24.439Z,19.00
2022-09-24T11:27:57.822Z,19.10
2022-09-24T11:30:28.619Z,19.10
2022-09-24T11:33:09.499Z,19.10
2022-09-24T11:36:08.478Z,19.20
2022-09-24T11:38:49.787Z,19.30
2022-09-24T11:41:30.263Z,19.30
2022-09-24T11:44:22.224Z,19.20
2022-09-24T11:46:59.913Z,19.20
2022-09-24T11:49:38.925Z,19.20
2022-09-24T11:52:11.616Z,19.20
2022-09-24T11:54:44.741Z,19.30
2022-09-24T11:57:20.995Z,19.30
2022-09-24T11:59:53.772Z,19.40
2022-09-24T12:02:30.973Z,19.30
2022-09-24T12:05:03.612Z,19.40
2022-09-24T12:07:40.233Z,19.40
2022-09-24T12:10:30.447Z,19.40
2022-09-24T12:13:05.394Z,19.30
2022-09-24T12:15:48.216Z,19.30
2022-09-24T12:18:20.480Z,19.40
2022-09-24T12:20:53.341Z,19.40
2022-09-24T12:23:27.969Z,19.40
2022-09-24T12:25:56.943Z,19.40
2022-09-24T12:28:43.996Z,19.40
2022-09-24T12:31:41.023Z,19.50
2022-09-24T12:34:14.143Z,19.60
2022-09-24T12:36:57.457Z,19.60
2022-09-24T12:39:29.150Z,19.60
2022-09-24T12:42:01.041Z,19.60
2022-09-24T12:44:35.362Z,19.70
2022-09-24T12:47:04.217Z,19.80
2022-09-24T12:49:35.471Z,19.80
2022-09-24T12:52:17.671Z,19.70
2022-09-24T12:54:46.644Z,19.70
2022-09-24T12:57:21.443Z,19.60
2022-09-24T12:59:55.319Z,19.50
2022-09-24T13:02:25.278Z,19.60
2022-09-24T13:05:17.369Z,19.50
2022-09-24T13:07:58.154Z,19.60
2022-09-24T13:10:29.270Z,19.50
2022-09-24T13:12:59.930Z,19.50
2022-09-24T13:15:34.492Z,19.60
2022-09-24T13:18:19.942Z,19.50
2022-09-24T13:21:01.910Z,19.60
2022-09-24T13:23:49.526Z,19.50
2022-09-24T13:26:33.739Z,19.50
2022-09-24T13:29:03.327Z,19.50
2022-09-24T13:31:36.975Z,19.50
2022-09-24T13:34:15.010Z,19.50
2022-09-24T13:36:46.997Z,19.60
2022-09-24T13:39:19.760Z,19.70
2022-09-24T13:41:54.687Z,19.70
2022-09-24T13:44:27.360Z,19.80
2022-09-24T13:47:01.263Z,19.80
2022-09-24T13:49:32.089Z,19.80
2022-09-24T13:52:10.102Z,19.80
2022-09-24T13:54:48.742Z,19.80
2022-09-24T13:57:23.652Z,19.80
2022-09-24T14:00:06.503Z,19.80
2022-09-24T14:02:38.694Z,19.80
2022-09-24T14:05:12.580Z,19.80
2022-09-24T14:07:41.916Z,19.90
2022-09-24T14:10:16.091Z,19.80
2022-09-24T14:12:44.591Z,19.90
2022-09-24T14:15:16.390Z,19.90
2022-09-24T14:17:47.369Z,19.90
2022-09-24T14:20:16.841Z,19.90
2022-09-24T14:22:46.517Z,19.90
2022-09-24T14:25:21.572Z,20.00
2022-09-24T14:27:52.302Z,20.10
2022-09-24T14:30:22.447Z,20.00
2022-09-24T14:32:53.084Z,20.00
2022-09-24T14:35:29.654Z,19.90
2022-09-24T14:38:03.708Z,19.90
2022-09-24T14:40:41.391Z,19.80
2022-09-24T14:43:16.993Z,19.80
2022-09-24T14:45:47.069Z,19.80
2022-09-24T14:48:22.044Z,19.70
2022-09-24T14:50:50.668Z,19.70
2022-09-24T14:53:23.718Z,19.60
2022-09-24T14:55:53.837Z,19.60
2022-09-24T14:58:27.179Z,19.50
2022-09-24T15:00:58.140Z,19.50
2022-09-24T15:03:30.640Z,19.40
2022-09-24T15:06:19.638Z,19.40
2022-09-24T15:08:57.417Z,19.30
2022-09-24T15:11:28.870Z,19.30
2022-09-24T15:14:02.985Z,19.20
2022-09-24T15:16:33.926Z,19.10
2022-09-24T15:19:16.944Z,19.10
2022-09-24T15:21:46.223Z,19.10
2022-09-24T15:24:14.658Z,19.00
2022-09-24T15:26:46.285Z,18.90
2022-09-24T15:29:21.090Z,18.90
2022-09-24T15:31:50.556Z,18.80
2022-09-24T15:34:20.546Z,18.80
2022-09-24T15:36:49.816Z,18.80
2022-09-24T15:39:20.651Z,18.70
2022-09-24T15:41:52.507Z,18.70
2022-09-24T15:44:29.770Z,18.60
2022-09-24T15:47:01.578Z,18.60
2022-09-24T15:49:30.231Z,18.50
2022-09-24T15:52:02.065Z,18.50
2022-09-24T15:54:30.551Z,18.40
2022-09-24T15:57:00.762Z,18.30
2022-09-24T15:59:29.520Z,18.30
2022-09-24T16:02:02.144Z,18.20
2022-09-24T16:04:30.825Z,18.30
2022-09-24T16:07:01.739Z,18.30
2022-09-24T16:09:30.946Z,18.30
2022-09-24T16:12:03.830Z,18.20
2022-09-24T16:14:32.611Z,18.10
2022-09-24T16:17:01.330Z,18.00
2022-09-24T16:19:30.693Z,18.00
2022-09-24T16:21:59.608Z,17.90
2022-09-24T16:24:28.276Z,17.90
2022-09-24T16:26:56.738Z,17.80
2022-09-24T16:29:30.173Z,17.80
2022-09-24T16:31:58.623Z,17.80
2022-09-24T16:34:27.415Z,17.70
2022-09-24T16:36:56.172Z,17.70
2022-09-24T16:39:24.624Z,17.60
2022-09-24T16:41:56.470Z,17.60
2022-09-24T16:44:24.856Z,17.50
2022-09-24T16:46:56.868Z,17.50
2022-09-24T16:49:25.896Z,17.50
2022-09-24T16:51:54.376Z,17.50
2022-09-24T16:54:23.406Z,17.40
2022-09-24T16:56:59.952Z,17.40
2022-09-24T16:59:30.010Z,17.30
2022-09-24T17:02:00.142Z,17.30
2022-09-24T17:04:30.020Z,17.30
2022-09-24T17:07:01.475Z,17.20
2022-09-24T17:09:46.756Z,17.20
2022-09-24T17:12:15.287Z,17.10
2022-09-24T17:14:45.454Z,17.10
2022-09-24T17:17:20.393Z,17.10
2022-09-24T17:19:49.081Z,17.00
2022-09-24T17:22:18.038Z,16.90
2022-09-24T17:24:46.477Z,16.90
2022-09-24T17:27:14.975Z,16.80
2022-09-24T17:29:43.758Z,16.80
2022-09-24T17:32:12.214Z,16.80
2022-09-24T17:34:45.713Z,17.10
2022-09-24T17:37:14.588Z,17.10
2022-09-24T17:39:43.102Z,17.00
2022-09-24T17:42:11.512Z,17.00
2022-09-24T17:44:39.912Z,16.90
2022-09-24T17:47:08.876Z,16.90
2022-09-24T17:49:37.723Z,16.90
2022-09-24T17:52:07.576Z,16.90
2022-09-24T17:54:36.111Z,16.80
2022-09-24T17:57:04.727Z,16.70
2022-09-24T17:59:33.135Z,16.70
2022-09-24T18:02:01.629Z,16.60
2022-09-24T18:04:31.358Z,16.60
2022-09-24T18:06:59.876Z,16.50
2022-09-24T18:09:31.840Z,16.40
2022-09-24T18:12:00.334Z,16.30
2022-09-24T18:14:28.829Z,16.30
2022-09-24T18:16:57.524Z,16.30
2022-09-24T18:19:26.320Z,16.20
2022-09-24T18:21:56.114Z,16.10
2022-09-24T18:24:24.922Z,16.00
2022-09-24T18:26:54.728Z,16.00
2022-09-24T18:29:23.993Z,16.00
2022-09-24T18:31:52.505Z,15.90
2022-09-24T18:34:20.972Z,15.90
2022-09-24T18:36:49.477Z,15.80
2022-09-24T18:39:24.735Z,15.80
2022-09-24T18:41:55.362Z,15.80
2022-09-24T18:44:23.727Z,15.70
2022-09-24T18:46:52.482Z,15.60
2022-09-24T18:49:20.975Z,15.60
2022-09-24T18:51:52.027Z,15.50
2022-09-24T18:54:20.666Z,15.50
2022-09-24T18:56:49.186Z,15.40
2022-09-24T18:59:20.678Z,15.40
2022-09-24T19:01:50.733Z,15.40
2022-09-24T19:04:19.977Z,15.30
2022-09-24T19:06:49.925Z,15.30
2022-09-24T19:09:20.221Z,15.30
2022-09-24T19:11:49.245Z,15.20
2022-09-24T19:14:19.091Z,15.20
2022-09-24T19:16:48.254Z,15.20
2022-09-24T19:19:17.236Z,15.10
2022-09-24T19:21:45.693Z,15.10
2022-09-24T19:24:14.273Z,15.00
2022-09-24T19:26:43.394Z,14.90
2022-09-24T19:29:12.052Z,14.90
2022-09-24T19:31:43.346Z,14.80
2022-09-24T19:34:14.419Z,14.80
2022-09-24T19:36:46.159Z,14.80
2022-09-24T19:39:16.937Z,14.70
2022-09-24T19:41:45.540Z,14.70
2022-09-24T19:44:16.469Z,14.70
2022-09-24T19:46:47.022Z,14.60
2022-09-24T19:49:15.629Z,14.60
2022-09-24T19:51:44.228Z,14.50
2022-09-24T19:54:12.850Z,14.50
2022-09-24T19:56:42.121Z,14.40
2022-09-24T19:59:11.453Z,14.30
2022-09-24T20:01:41.261Z,14.30
2022-09-24T20:04:11.257Z,14.30
2022-09-24T20:06:39.973Z,14.20
2022-09-24T20:09:08.980Z,14.20
2022-09-24T20:11:37.487Z,14.10
2022-09-24T20:14:09.028Z,14.10
2022-09-24T20:16:38.103Z,14.10
2022-09-24T20:19:06.709Z,14.00
2022-09-24T20:21:38.482Z,14.00
2022-09-24T20:24:09.263Z,14.00
2022-09-24T20:26:55.054Z,14.00
2022-09-24T20:29:24.379Z,13.90
2022-09-24T20:31:55.795Z,13.80
2022-09-24T20:34:26.437Z,13.80
2022-09-24T20:36:58.443Z,13.70
2022-09-24T20:39:26.924Z,13.60
2022-09-24T20:41:55.352Z,13.60
2022-09-24T20:44:25.265Z,13.50
2022-09-24T20:46:53.696Z,13.50
2022-09-24T20:49:23.368Z,13.40
2022-09-24T20:51:56.512Z,13.40
2022-09-24T20:54:28.465Z,13.40
2022-09-24T20:56:58.914Z,13.30
2022-09-24T20:59:27.932Z,13.30
2022-09-24T21:01:56.635Z,13.20
2022-09-24T21:04:25.921Z,13.20
2022-09-24T21:06:55.232Z,13.20
2022-09-24T21:09:23.937Z,13.20
2022-09-24T21:11:54.450Z,13.20
2022-09-24T21:14:23.580Z,13.20
2022-09-24T21:16:55.026Z,13.40
2022-09-24T21:19:24.304Z,13.40
2022-09-24T21:21:53.857Z,13.40
2022-09-24T21:24:25.097Z,13.50
2022-09-24T21:26:59.086Z,13.50
2022-09-24T21:29:27.588Z,13.50
2022-09-24T21:31:56.064Z,13.40
2022-09-24T21:34:24.546Z,13.40
2022-09-24T21:36:53.173Z,13.30
2022-09-24T21:39:23.568Z,13.30
2022-09-24T21:41:55.350Z,13.10
2022-09-24T21:44:25.291Z,13.20
2022-09-24T21:46:54.348Z,13.20
2022-09-24T21:49:23.160Z,13.20
2022-09-24T21:51:52.495Z,13.10
2022-09-24T21:54:21.080Z,13.10
2022-09-24T21:56:49.917Z,13.10
2022-09-24T21:59:35.816Z,13.20
2022-09-24T22:02:06.042Z,13.20
2022-09-24T22:04:34.583Z,13.30
2022-09-24T22:07:03.480Z,13.30
2022-09-24T22:09:32.513Z,13.20
2022-09-24T22:12:01.863Z,13.20
2022-09-24T22:14:30.390Z,13.20
2022-09-24T22:16:58.860Z,13.10
2022-09-24T22:19:28.844Z,13.00
2022-09-24T22:21:57.318Z,13.00
2022-09-24T22:24:25.739Z,13.00
2022-09-24T22:26:54.406Z,13.00
2022-09-24T22:29:22.935Z,13.00
2022-09-24T22:31:51.398Z,13.00
2022-09-24T22:34:37.119Z,12.80
2022-09-24T22:37:08.044Z,12.70
2022-09-24T22:39:36.758Z,12.60
2022-09-24T22:42:05.579Z,12.60
2022-09-24T22:44:34.098Z,12.60
2022-09-24T22:47:02.740Z,12.60
2022-09-24T22:49:31.861Z,12.60
2022-09-24T22:52:00.360Z,12.60
2022-09-24T22:54:30.494Z,12.60
2022-09-24T22:56:59.019Z,12.60
2022-09-24T22:59:27.427Z,12.60
2022-09-24T23:01:55.831Z,12.60
2022-09-24T23:04:24.399Z,12.60
2022-09-24T23:06:52.916Z,12.60
2022-09-24T23:09:21.699Z,12.60
2022-09-24T23:11:51.667Z,12.60
2022-09-24T23:14:20.065Z,12.60
2022-09-24T23:16:48.663Z,12.60
2022-09-24T23:19:18.458Z,12.60
2022-09-24T23:21:47.271Z,12.60
2022-09-24T23:24:17.584Z,12.60
2022-09-24T23:26:46.591Z,12.70
2022-09-24T23:29:16.569Z,12.70
2022-09-24T23:31:45.555Z,12.70
2022-09-24T23:34:14.946Z,12.60
2022-09-24T23:36:45.158Z,12.70
2022-09-24T23:39:13.801Z,12.70
2022-09-24T23:41:42.304Z,12.60
2022-09-24T23:44:10.992Z,12.60
2022-09-24T23:46:40.906Z,12.60
2022-09-24T23:49:09.699Z,12.60
2022-09-24T23:51:38.338Z,12.60
2022-09-24T23:54:07.360Z,12.60
2022-09-24T23:56:35.782Z,12.50
2022-09-24T23:59:05.253Z,12.50
